createdAt,value
2017-11-14T00:02:24.610Z,90.30
2017-11-14T00:04:52.678Z,90.70
2017-11-14T00:07:20.731Z,90.50
2017-11-14T00:09:48.802Z,90.60
2017-11-14T00:12:17.618Z,90.80
2017-11-14T00:17:14.995Z,90.60
2017-11-14T00:19:43.078Z,90.90
2017-11-14T00:22:11.146Z,91.20
2017-11-14T00:24:39.226Z,91.20
2017-11-14T00:27:07.286Z,91.40
2017-11-14T00:29:35.338Z,91.10
2017-11-14T00:32:03.414Z,91.10
2017-11-14T00:34:31.486Z,91.10
2017-11-14T00:36:59.555Z,91.00
2017-11-14T00:39:27.606Z,91.00
2017-11-14T00:41:55.674Z,90.90
2017-11-14T00:44:23.736Z,90.70
2017-11-14T00:46:52.565Z,90.60
2017-11-14T00:49:20.638Z,90.50
2017-11-14T00:51:48.702Z,90.30
2017-11-14T00:54:16.783Z,90.00
2017-11-14T00:56:44.865Z,90.30
2017-11-14T00:59:12.922Z,90.60
2017-11-14T01:01:40.992Z,90.80
2017-11-14T01:04:09.063Z,90.60
2017-11-14T01:06:37.124Z,90.40
2017-11-14T01:09:05.174Z,90.70
2017-11-14T01:11:33.646Z,90.40
2017-11-14T01:14:01.703Z,90.60
2017-11-14T01:16:30.526Z,90.40
2017-11-14T01:18:58.594Z,90.40
2017-11-14T01:21:26.648Z,90.20
2017-11-14T01:23:54.719Z,90.20
2017-11-14T01:26:22.774Z,90.30
2017-11-14T01:28:51.612Z,90.60
2017-11-14T01:31:19.663Z,90.40
2017-11-14T01:33:47.730Z,90.30
2017-11-14T01:38:45.119Z,89.80
2017-11-14T01:41:14.441Z,89.40
2017-11-14T01:43:42.847Z,90.00
2017-11-14T01:46:10.901Z,90.00
2017-11-14T01:48:38.972Z,90.00
2017-11-14T01:51:07.031Z,88.50
2017-11-14T01:53:35.133Z,89.70
2017-11-14T01:56:03.178Z,88.50
2017-11-14T01:58:31.233Z,89.20
2017-11-14T02:00:59.306Z,89.30
2017-11-14T02:03:27.373Z,88.80
2017-11-14T02:05:56.566Z,87.30
2017-11-14T02:08:24.649Z,87.30
2017-11-14T02:10:53.466Z,87.70
2017-11-14T02:13:21.545Z,88.20
2017-11-14T02:15:50.757Z,88.00
2017-11-14T02:18:19.206Z,88.50
2017-11-14T02:20:48.053Z,88.00
2017-11-14T02:23:16.889Z,88.20
2017-11-14T02:25:45.726Z,86.00
2017-11-14T02:30:44.250Z,84.30
2017-11-14T02:33:12.324Z,84.20
2017-11-14T02:35:40.397Z,84.10
2017-11-14T02:38:08.435Z,83.10
2017-11-14T02:40:37.276Z,82.70
2017-11-14T02:43:05.332Z,83.10
2017-11-14T02:45:34.149Z,82.70
2017-11-14T02:48:03.344Z,82.20
2017-11-14T02:50:31.399Z,81.40
2017-11-14T02:53:00.243Z,81.90
2017-11-14T02:55:29.067Z,82.90
2017-11-14T02:57:57.114Z,82.50
2017-11-14T03:00:25.943Z,83.20
2017-11-14T03:02:54.021Z,84.10
2017-11-14T03:05:22.077Z,84.70
2017-11-14T03:07:50.917Z,84.60
2017-11-14T03:10:18.985Z,84.00
2017-11-14T03:12:47.028Z,83.70
2017-11-14T03:15:15.858Z,86.60
2017-11-14T03:17:44.680Z,86.90
2017-11-14T03:20:12.752Z,86.00
2017-11-14T03:22:41.206Z,86.30
2017-11-14T03:25:10.040Z,88.20
2017-11-14T03:27:38.092Z,87.10
2017-11-14T03:30:06.177Z,87.00
2017-11-14T03:32:35.389Z,89.10
2017-11-14T03:35:03.423Z,87.20
2017-11-14T03:40:01.606Z,86.50
2017-11-14T03:42:30.047Z,86.30
2017-11-14T03:44:58.111Z,86.80
2017-11-14T03:47:26.175Z,86.50
2017-11-14T03:49:54.222Z,84.00
2017-11-14T03:52:22.300Z,83.90
2017-11-14T03:54:50.347Z,83.30
2017-11-14T03:59:47.740Z,83.30
2017-11-14T04:02:15.807Z,84.40
2017-11-14T04:04:44.247Z,84.40
2017-11-14T04:07:12.324Z,85.00
2017-11-14T04:09:40.478Z,85.50
2017-11-14T04:12:08.483Z,86.00
2017-11-14T04:14:38.074Z,86.40
2017-11-14T04:17:06.133Z,86.70
2017-11-14T04:19:34.199Z,86.70
2017-11-14T04:22:02.247Z,86.50
2017-11-14T04:24:30.711Z,85.90
2017-11-14T04:29:29.228Z,87.60
2017-11-14T04:31:57.312Z,87.60
2017-11-14T04:34:25.763Z,86.50
2017-11-14T04:36:54.956Z,87.20
2017-11-14T04:39:23.432Z,87.00
2017-11-14T04:41:51.492Z,86.80
2017-11-14T04:44:21.052Z,87.30
2017-11-14T04:46:49.126Z,88.00
2017-11-14T04:49:17.195Z,87.80
2017-11-14T04:51:45.271Z,88.20
2017-11-14T04:54:14.099Z,87.80
2017-11-14T04:56:42.944Z,88.00
2017-11-14T04:59:11.017Z,88.00
2017-11-14T05:01:39.066Z,88.30
2017-11-14T05:04:07.175Z,89.00
2017-11-14T05:06:35.231Z,89.40
2017-11-14T05:09:03.297Z,89.30
2017-11-14T05:11:31.375Z,88.70
2017-11-14T05:13:59.431Z,89.20
2017-11-14T05:16:27.498Z,89.30
2017-11-14T05:18:55.566Z,89.70
2017-11-14T05:21:23.639Z,89.60
2017-11-14T05:23:51.699Z,89.60
2017-11-14T05:26:20.137Z,89.80
2017-11-14T05:28:48.198Z,90.10
2017-11-14T05:31:16.654Z,89.00
2017-11-14T05:33:45.511Z,90.20
2017-11-14T05:36:14.359Z,90.10
2017-11-14T05:38:42.816Z,89.60
2017-11-14T05:41:10.901Z,88.80
2017-11-14T05:43:39.362Z,89.40
2017-11-14T05:46:08.207Z,88.40
2017-11-14T05:48:37.035Z,88.80
2017-11-14T05:51:05.099Z,88.20
2017-11-14T05:53:33.170Z,87.40
2017-11-14T05:56:01.623Z,88.00
2017-11-14T05:58:30.474Z,88.60
2017-11-14T06:00:58.536Z,87.60
2017-11-14T06:03:26.600Z,87.70
2017-11-14T06:05:55.441Z,88.70
2017-11-14T06:08:24.286Z,90.30
2017-11-14T06:10:52.359Z,90.90
2017-11-14T06:13:21.192Z,90.40
2017-11-14T06:15:49.252Z,89.00
2017-11-14T06:18:17.328Z,87.20
2017-11-14T06:20:45.803Z,91.00
2017-11-14T06:23:13.874Z,91.00
2017-11-14T06:28:12.024Z,85.80
2017-11-14T06:30:40.483Z,85.00
2017-11-14T06:33:08.539Z,85.00
2017-11-14T06:35:37.375Z,85.20
2017-11-14T06:38:05.433Z,85.40
2017-11-14T06:40:33.491Z,85.50
2017-11-14T06:43:01.620Z,84.80
2017-11-14T06:45:29.679Z,84.70
2017-11-14T06:47:57.727Z,84.10
2017-11-14T06:50:25.803Z,84.70
2017-11-14T06:52:53.870Z,84.70
2017-11-14T06:55:22.347Z,84.80
2017-11-14T06:57:50.406Z,84.70
2017-11-14T07:00:18.487Z,84.50
2017-11-14T07:02:46.550Z,84.70
2017-11-14T07:05:14.608Z,85.70
2017-11-14T07:07:43.445Z,85.80
2017-11-14T07:10:11.507Z,85.40
2017-11-14T07:12:40.360Z,85.30
2017-11-14T07:15:09.179Z,84.00
2017-11-14T07:17:37.234Z,82.30
2017-11-14T07:20:05.311Z,79.80
2017-11-14T07:22:33.762Z,77.90
2017-11-14T07:25:02.586Z,77.30
2017-11-14T07:27:30.659Z,75.70
2017-11-14T07:29:58.716Z,74.60
2017-11-14T07:32:26.782Z,74.80
2017-11-14T07:34:54.834Z,75.80
2017-11-14T07:37:23.684Z,77.70
2017-11-14T07:39:51.756Z,78.10
2017-11-14T07:42:19.813Z,79.50
2017-11-14T07:44:47.888Z,80.10
2017-11-14T07:47:15.949Z,80.40
2017-11-14T07:49:44.014Z,80.30
2017-11-14T07:52:12.100Z,78.70
2017-11-14T07:54:40.212Z,77.60
2017-11-14T07:57:08.292Z,77.70
2017-11-14T07:59:36.362Z,77.10
2017-11-14T08:02:04.418Z,77.00
2017-11-14T08:04:32.492Z,77.50
2017-11-14T08:07:00.569Z,79.30
2017-11-14T08:09:28.636Z,80.10
2017-11-14T08:11:56.702Z,79.50
2017-11-14T08:14:24.767Z,78.80
2017-11-14T08:16:52.838Z,79.60
2017-11-14T08:19:20.908Z,78.80
2017-11-14T08:21:48.996Z,78.40
2017-11-14T08:24:17.073Z,78.30
2017-11-14T08:26:45.127Z,78.40
2017-11-14T08:29:13.204Z,76.50
2017-11-14T08:31:41.369Z,74.50
2017-11-14T08:34:10.163Z,73.70
2017-11-14T08:36:38.991Z,71.70
2017-11-14T08:39:08.203Z,68.40
2017-11-14T08:41:36.262Z,66.20
2017-11-14T08:44:05.112Z,65.80
2017-11-14T08:46:33.150Z,66.70
2017-11-14T08:49:01.237Z,63.00
2017-11-14T08:51:29.291Z,62.00
2017-11-14T08:53:57.372Z,60.70
2017-11-14T08:56:26.217Z,60.30
2017-11-14T08:58:54.296Z,57.50
2017-11-14T09:01:23.126Z,54.60
2017-11-14T09:03:51.199Z,50.10
2017-11-14T09:06:19.260Z,44.60
2017-11-14T09:08:47.342Z,43.40
2017-11-14T09:11:16.547Z,43.60
2017-11-14T09:13:44.608Z,41.10
2017-11-14T09:16:12.693Z,41.00
2017-11-14T09:18:40.781Z,41.10
2017-11-14T09:21:08.840Z,39.80
2017-11-14T09:23:36.894Z,36.70
2017-11-14T09:26:04.980Z,35.70
2017-11-14T09:28:33.077Z,34.60
2017-11-14T09:31:01.139Z,32.50
2017-11-14T09:33:29.599Z,31.40
2017-11-14T09:35:58.099Z,30.20
2017-11-14T09:38:26.170Z,30.40
2017-11-14T09:40:54.256Z,28.40
2017-11-14T09:43:22.336Z,28.40
2017-11-14T09:45:50.414Z,28.40
2017-11-14T09:48:18.891Z,27.20
2017-11-14T09:50:46.963Z,28.30
2017-11-14T09:53:15.053Z,27.80
2017-11-14T09:55:43.888Z,28.20
2017-11-14T09:58:12.710Z,27.20
2017-11-14T10:00:40.828Z,25.80
2017-11-14T10:03:09.632Z,25.70
2017-11-14T10:05:37.706Z,27.10
2017-11-14T10:08:05.781Z,28.80
2017-11-14T10:10:33.884Z,27.10
2017-11-14T10:13:01.945Z,27.90
2017-11-14T10:15:30.015Z,27.60
2017-11-14T10:17:58.096Z,27.50
2017-11-14T10:20:26.158Z,27.20
2017-11-14T10:22:54.260Z,29.20
2017-11-14T10:25:23.091Z,30.00
2017-11-14T10:27:51.164Z,31.10
2017-11-14T10:30:19.244Z,29.60
2017-11-14T10:32:47.316Z,28.60
2017-11-14T10:35:15.415Z,29.40
2017-11-14T10:37:43.493Z,28.60
2017-11-14T10:40:11.568Z,28.20
2017-11-14T10:42:40.056Z,28.50
2017-11-14T10:45:08.128Z,29.50
2017-11-14T10:47:36.194Z,28.70
2017-11-14T10:50:04.276Z,28.10
2017-11-14T10:52:32.350Z,27.00
2017-11-14T10:55:00.439Z,25.90
2017-11-14T10:57:28.902Z,27.30
2017-11-14T10:59:58.118Z,27.70
2017-11-14T11:02:26.956Z,27.70
2017-11-14T11:04:55.019Z,29.10
2017-11-14T11:07:23.107Z,32.20
2017-11-14T11:09:51.184Z,36.10
2017-11-14T11:12:19.256Z,38.00
2017-11-14T11:14:47.321Z,37.50
2017-11-14T11:17:15.389Z,35.00
2017-11-14T11:19:43.472Z,33.70
2017-11-14T11:22:11.936Z,34.30
2017-11-14T11:24:40.032Z,36.70
2017-11-14T11:27:08.100Z,37.70
2017-11-14T11:29:36.173Z,36.90
2017-11-14T11:32:05.764Z,37.20
2017-11-14T11:34:33.837Z,36.40
2017-11-14T11:37:01.920Z,35.60
2017-11-14T11:39:29.991Z,38.00
2017-11-14T11:41:58.079Z,37.60
2017-11-14T11:44:26.134Z,35.50
2017-11-14T11:46:54.983Z,32.90
2017-11-14T11:49:23.035Z,31.00
2017-11-14T11:51:51.871Z,27.60
2017-11-14T11:54:19.936Z,24.00
2017-11-14T11:56:48.017Z,23.80
2017-11-14T11:59:17.846Z,24.80
2017-11-14T12:01:45.932Z,27.80
2017-11-14T12:04:14.001Z,28.50
2017-11-14T12:06:42.068Z,32.60
2017-11-14T12:09:10.140Z,29.90
2017-11-14T12:11:39.365Z,29.30
2017-11-14T12:14:07.824Z,28.90
2017-11-14T12:16:35.903Z,27.30
2017-11-14T12:19:03.968Z,28.80
2017-11-14T12:21:32.040Z,31.40
2017-11-14T12:24:00.108Z,32.20
2017-11-14T12:26:28.174Z,34.40
2017-11-14T12:28:56.239Z,36.00
2017-11-14T12:31:24.698Z,35.80
2017-11-14T12:33:52.759Z,36.60
2017-11-14T12:36:20.848Z,35.90
2017-11-14T12:38:50.052Z,36.30
2017-11-14T12:41:18.866Z,35.80
2017-11-14T12:43:46.950Z,37.30
2017-11-14T12:46:16.138Z,37.10
2017-11-14T12:48:45.721Z,39.50
2017-11-14T12:51:15.298Z,37.20
2017-11-14T12:53:43.350Z,38.60
2017-11-14T12:56:12.182Z,39.10
2017-11-14T12:58:40.237Z,37.80
2017-11-14T13:01:08.343Z,37.20
2017-11-14T13:03:36.397Z,39.20
2017-11-14T13:06:04.448Z,39.10
2017-11-14T13:08:32.516Z,40.00
2017-11-14T13:11:00.567Z,40.50
2017-11-14T13:13:30.162Z,41.00
2017-11-14T13:15:58.220Z,41.00
2017-11-14T13:18:26.276Z,40.50
2017-11-14T13:20:54.736Z,39.80
2017-11-14T13:23:22.806Z,38.00
2017-11-14T13:25:50.868Z,39.00
2017-11-14T13:28:18.924Z,39.00
2017-11-14T13:33:16.331Z,37.20
2017-11-14T13:35:44.387Z,36.90
2017-11-14T13:38:12.452Z,37.00
2017-11-14T13:40:40.528Z,36.50
2017-11-14T13:43:08.609Z,35.60
2017-11-14T13:45:36.671Z,35.80
2017-11-14T13:48:04.764Z,36.10
2017-11-14T13:50:32.825Z,37.10
2017-11-14T13:53:00.875Z,38.20
2017-11-14T13:55:28.968Z,38.00
2017-11-14T13:57:57.011Z,38.10
2017-11-14T14:00:25.847Z,37.30
2017-11-14T14:02:53.927Z,37.10
2017-11-14T14:05:21.996Z,37.30
2017-11-14T14:07:50.038Z,36.10
2017-11-14T14:10:18.102Z,37.00
2017-11-14T14:12:46.159Z,36.80
2017-11-14T14:15:14.993Z,38.00
2017-11-14T14:17:43.045Z,38.10
2017-11-14T14:20:11.112Z,38.40
2017-11-14T14:25:08.498Z,38.60
2017-11-14T14:27:36.560Z,38.50
2017-11-14T14:30:04.624Z,38.30
2017-11-14T14:32:32.704Z,39.00
2017-11-14T14:35:00.757Z,39.30
2017-11-14T14:37:30.310Z,40.10
2017-11-14T14:39:58.371Z,40.20
2017-11-14T14:42:26.426Z,40.60
2017-11-14T14:44:54.502Z,41.40
2017-11-14T14:47:22.571Z,40.80
2017-11-14T14:49:50.631Z,41.00
2017-11-14T14:52:18.699Z,41.40
2017-11-14T14:54:46.769Z,41.90
2017-11-14T14:57:14.820Z,42.00
2017-11-14T14:59:42.897Z,42.20
2017-11-14T15:02:11.723Z,42.70
2017-11-14T15:04:40.184Z,41.70
2017-11-14T15:07:09.113Z,42.90
2017-11-14T15:09:37.159Z,43.10
2017-11-14T15:12:05.211Z,43.30
2017-11-14T15:14:34.051Z,44.30
2017-11-14T15:17:02.499Z,43.90
2017-11-14T15:19:30.578Z,44.20
2017-11-14T15:21:58.627Z,44.60
2017-11-14T15:24:27.444Z,46.20
2017-11-14T15:26:55.515Z,46.00
2017-11-14T15:29:23.590Z,46.20
2017-11-14T15:31:51.648Z,47.00
2017-11-14T15:34:19.724Z,47.30
2017-11-14T15:36:47.771Z,47.00
2017-11-14T15:39:16.595Z,47.90
2017-11-14T15:41:45.814Z,48.20
2017-11-14T15:44:13.876Z,48.50
2017-11-14T15:46:41.932Z,49.30
2017-11-14T15:49:10.020Z,50.00
2017-11-14T15:51:38.852Z,52.50
2017-11-14T15:54:06.895Z,53.50
2017-11-14T15:56:35.720Z,54.80
2017-11-14T15:59:04.560Z,56.70
2017-11-14T16:01:32.611Z,57.00
2017-11-14T16:04:00.676Z,56.80
2017-11-14T16:06:29.495Z,66.30
2017-11-14T16:08:57.559Z,72.20
2017-11-14T16:11:25.627Z,67.40
2017-11-14T16:13:53.704Z,64.20
2017-11-14T16:16:21.747Z,75.20
2017-11-14T16:18:49.822Z,65.60
2017-11-14T16:21:17.880Z,61.60
2017-11-14T16:23:46.336Z,64.40
2017-11-14T16:26:14.398Z,62.20
2017-11-14T16:28:42.459Z,62.50
2017-11-14T16:31:10.537Z,64.00
2017-11-14T16:33:38.595Z,66.00
2017-11-14T16:36:06.671Z,67.30
2017-11-14T16:38:34.747Z,67.80
2017-11-14T16:41:04.337Z,70.90
2017-11-14T16:43:32.396Z,70.50
2017-11-14T16:46:00.468Z,72.20
2017-11-14T16:48:28.534Z,72.80
2017-11-14T16:50:56.600Z,73.10
2017-11-14T16:53:24.676Z,74.50
2017-11-14T16:55:52.756Z,74.80
2017-11-14T16:58:20.811Z,76.00
2017-11-14T17:00:48.900Z,76.10
2017-11-14T17:03:16.959Z,77.20
2017-11-14T17:05:45.782Z,78.50
2017-11-14T17:08:14.672Z,78.20
2017-11-14T17:10:42.732Z,78.90
2017-11-14T17:13:16.271Z,78.90
2017-11-14T17:15:44.355Z,79.10
2017-11-14T17:18:12.409Z,79.90
2017-11-14T17:20:40.535Z,79.60
2017-11-14T17:23:08.604Z,80.60
2017-11-14T17:28:06.821Z,80.50
2017-11-14T17:30:34.856Z,81.00
2017-11-14T17:33:02.920Z,81.30
2017-11-14T17:35:31.764Z,81.30
2017-11-14T17:37:59.831Z,80.40
2017-11-14T17:40:27.902Z,81.10
2017-11-14T17:45:26.592Z,82.40
2017-11-14T17:47:54.660Z,82.20
2017-11-14T17:50:22.736Z,81.80
2017-11-14T17:52:51.208Z,82.10
2017-11-14T17:55:19.301Z,82.40
2017-11-14T17:57:47.358Z,82.30
2017-11-14T18:00:15.437Z,82.90
2017-11-14T18:02:43.922Z,83.30
2017-11-14T18:05:11.976Z,82.50
2017-11-14T18:07:40.039Z,81.90
2017-11-14T18:10:08.103Z,81.60
2017-11-14T18:12:36.172Z,81.70
2017-11-14T18:15:04.258Z,82.00
2017-11-14T18:17:32.313Z,81.90
2017-11-14T18:20:01.147Z,83.30
2017-11-14T18:22:29.210Z,82.80
2017-11-14T18:24:57.288Z,82.40
2017-11-14T18:27:25.344Z,83.00
2017-11-14T18:29:53.436Z,83.40
2017-11-14T18:32:21.496Z,83.30
2017-11-14T18:34:49.555Z,83.60
2017-11-14T18:37:17.634Z,83.20
2017-11-14T18:39:45.695Z,82.60
2017-11-14T18:42:13.765Z,83.30
2017-11-14T18:44:41.868Z,82.80
2017-11-14T18:47:09.940Z,83.00
2017-11-14T18:49:38.006Z,82.70
2017-11-14T18:52:06.071Z,82.50
2017-11-14T18:54:34.161Z,82.70
2017-11-14T18:57:02.232Z,82.80
2017-11-14T18:59:31.088Z,83.60
2017-11-14T19:01:59.547Z,83.30
2017-11-14T19:04:28.376Z,83.70
2017-11-14T19:06:56.455Z,82.90
2017-11-14T19:09:24.915Z,82.80
2017-11-14T19:11:53.408Z,83.00
2017-11-14T19:14:21.466Z,83.60
2017-11-14T19:16:49.528Z,83.10
2017-11-14T19:19:17.608Z,83.20
2017-11-14T19:21:45.703Z,83.30
2017-11-14T19:24:13.757Z,82.70
2017-11-14T19:26:41.825Z,82.40
2017-11-14T19:29:11.430Z,81.80
2017-11-14T19:31:39.508Z,82.30
2017-11-14T19:34:07.576Z,82.90
2017-11-14T19:36:35.678Z,82.80
2017-11-14T19:39:03.727Z,83.30
2017-11-14T19:41:31.793Z,83.10
2017-11-14T19:43:59.867Z,83.20
2017-11-14T19:46:27.926Z,84.10
2017-11-14T19:48:56.407Z,83.20
2017-11-14T19:51:25.629Z,83.80
2017-11-14T19:53:53.708Z,83.90
2017-11-14T19:56:21.771Z,84.30
2017-11-14T19:58:49.849Z,85.60
2017-11-14T20:01:17.924Z,86.20
2017-11-14T20:03:46.008Z,85.90
2017-11-14T20:06:14.062Z,86.10
2017-11-14T20:08:42.531Z,86.10
2017-11-14T20:11:10.595Z,85.40
2017-11-14T20:13:38.682Z,86.10
2017-11-14T20:16:06.743Z,86.00
2017-11-14T20:21:04.134Z,86.30
2017-11-14T20:23:32.216Z,86.70
2017-11-14T20:26:01.053Z,86.10
2017-11-14T20:28:29.890Z,87.40
2017-11-14T20:30:57.972Z,87.00
2017-11-14T20:33:26.032Z,86.10
2017-11-14T20:35:54.512Z,85.90
2017-11-14T20:38:22.570Z,85.00
2017-11-14T20:40:50.695Z,84.60
2017-11-14T20:43:18.771Z,84.60
2017-11-14T20:45:46.826Z,85.00
2017-11-14T20:48:15.295Z,85.20
2017-11-14T20:50:43.410Z,85.20
2017-11-14T20:53:12.234Z,86.00
2017-11-14T20:55:40.373Z,86.10
2017-11-14T20:58:09.931Z,84.90
2017-11-14T21:00:37.994Z,84.50
2017-11-14T21:03:06.063Z,84.60
2017-11-14T21:05:34.131Z,84.40
2017-11-14T21:08:02.204Z,84.40
2017-11-14T21:10:30.676Z,84.70
2017-11-14T21:12:58.742Z,84.60
2017-11-14T21:15:27.210Z,85.20
2017-11-14T21:17:55.262Z,85.20
2017-11-14T21:20:24.107Z,85.60
2017-11-14T21:22:52.939Z,86.20
2017-11-14T21:25:21.797Z,86.80
2017-11-14T21:27:49.865Z,86.00
2017-11-14T21:30:17.918Z,84.80
2017-11-14T21:32:46.016Z,85.50
2017-11-14T21:35:14.080Z,85.70
2017-11-14T21:37:42.139Z,87.10
2017-11-14T21:42:39.592Z,88.00
2017-11-14T21:45:07.670Z,87.20
2017-11-14T21:47:35.731Z,85.50
2017-11-14T21:50:04.570Z,85.80
2017-11-14T21:52:32.628Z,86.30
2017-11-14T21:55:01.837Z,86.20
2017-11-14T21:57:30.290Z,87.10
2017-11-14T21:59:58.368Z,87.70
2017-11-14T22:02:26.422Z,86.60
2017-11-14T22:04:54.933Z,85.70
2017-11-14T22:07:23.382Z,84.90
2017-11-14T22:09:51.463Z,86.30
2017-11-14T22:12:19.528Z,85.80
2017-11-14T22:14:47.592Z,87.10
2017-11-14T22:17:15.667Z,85.70
2017-11-14T22:19:43.731Z,86.70
2017-11-14T22:22:11.816Z,86.40
2017-11-14T22:24:39.880Z,86.20
2017-11-14T22:27:07.943Z,85.40
2017-11-14T22:29:36.036Z,86.60
2017-11-14T22:32:04.109Z,87.40
2017-11-14T22:34:32.191Z,87.20
2017-11-14T22:37:00.256Z,87.90
2017-11-14T22:39:28.332Z,87.60
2017-11-14T22:41:56.411Z,87.20
2017-11-14T22:44:24.477Z,85.50
2017-11-14T22:46:52.561Z,86.00
2017-11-14T22:49:20.628Z,84.90
2017-11-14T22:51:48.690Z,83.70
2017-11-14T22:54:16.764Z,84.50
2017-11-14T22:56:44.834Z,84.20
2017-11-14T22:59:12.944Z,84.80
2017-11-14T23:01:42.137Z,84.30
2017-11-14T23:04:10.199Z,84.30
2017-11-14T23:06:38.270Z,85.20
2017-11-14T23:09:06.332Z,84.50
2017-11-14T23:11:34.404Z,84.00
2017-11-14T23:14:02.882Z,84.30
2017-11-14T23:16:30.947Z,84.40
2017-11-14T23:18:59.023Z,83.80
2017-11-14T23:21:27.084Z,83.50
2017-11-14T23:23:55.566Z,84.50
2017-11-14T23:26:23.632Z,84.00
2017-11-14T23:28:51.682Z,83.80
2017-11-14T23:31:19.770Z,84.40
2017-11-14T23:33:47.838Z,84.60
2017-11-14T23:36:16.308Z,84.70
2017-11-14T23:38:45.521Z,84.30
2017-11-14T23:41:13.617Z,85.00
2017-11-14T23:43:42.516Z,85.40
2017-11-14T23:46:11.300Z,86.10
2017-11-14T23:48:39.383Z,85.10
2017-11-14T23:51:07.463Z,85.20
2017-11-14T23:53:35.538Z,84.10
2017-11-14T23:56:03.620Z,83.60
2017-11-14T23:58:31.688Z,81.90
